sensor_id;sensor_type;location;lat;lon;timestamp;P1;durP1;ratioP1;P2;durP2;ratioP2
43835;SDS011;39345;43.964;25.340;2023-05-10T00:00:04;16.27;;;10.73;;
43835;SDS011;39345;43.964;25.340;2023-05-10T00:02:38;16.13;;;10.32;;
43835;SDS011;39345;43.964;25.340;2023-05-10T00:05:06;16.55;;;11.10;;
43835;SDS011;39345;43.964;25.340;2023-05-10T00:07:34;17.15;;;11.25;;
43835;SDS011;39345;43.964;25.340;2023-05-10T00:10:01;14.98;;;10.30;;
43835;SDS011;39345;43.964;25.340;2023-05-10T00:12:29;17.35;;;11.55;;
43835;SDS011;39345;43.964;25.340;2023-05-10T00:14:56;16.15;;;11.15;;
43835;SDS011;39345;43.964;25.340;2023-05-10T00:17:24;16.20;;;10.50;;
43835;SDS011;39345;43.964;25.340;2023-05-10T00:19:51;13.35;;;10.60;;
43835;SDS011;39345;43.964;25.340;2023-05-10T00:22:18;14.43;;;10.73;;
43835;SDS011;39345;43.964;25.340;2023-05-10T00:24:46;14.98;;;10.75;;
43835;SDS011;39345;43.964;25.340;2023-05-10T00:27:13;15.80;;;11.32;;
43835;SDS011;39345;43.964;25.340;2023-05-10T00:29:41;15.35;;;11.00;;
43835;SDS011;39345;43.964;25.340;2023-05-10T00:32:09;17.17;;;11.57;;
43835;SDS011;39345;43.964;25.340;2023-05-10T00:34:37;14.25;;;10.90;;
43835;SDS011;39345;43.964;25.340;2023-05-10T00:37:04;15.50;;;10.98;;
43835;SDS011;39345;43.964;25.340;2023-05-10T00:39:32;13.85;;;10.75;;
43835;SDS011;39345;43.964;25.340;2023-05-10T00:41:59;13.40;;;10.18;;
43835;SDS011;39345;43.964;25.340;2023-05-10T00:44:27;13.27;;;10.35;;
43835;SDS011;39345;43.964;25.340;2023-05-10T00:46:55;14.07;;;10.52;;
43835;SDS011;39345;43.964;25.340;2023-05-10T00:49:22;15.10;;;9.90;;
43835;SDS011;39345;43.964;25.340;2023-05-10T00:51:50;14.98;;;10.13;;
43835;SDS011;39345;43.964;25.340;2023-05-10T00:54:17;13.40;;;9.55;;
43835;SDS011;39345;43.964;25.340;2023-05-10T00:56:45;19.55;;;9.93;;
43835;SDS011;39345;43.964;25.340;2023-05-10T00:59:16;14.50;;;10.40;;
43835;SDS011;39345;43.964;25.340;2023-05-10T01:01:47;13.77;;;10.50;;
43835;SDS011;39345;43.964;25.340;2023-05-10T01:04:15;15.65;;;10.65;;
43835;SDS011;39345;43.964;25.340;2023-05-10T01:06:43;18.08;;;11.32;;
43835;SDS011;39345;43.964;25.340;2023-05-10T01:09:10;16.35;;;9.90;;
43835;SDS011;39345;43.964;25.340;2023-05-10T01:11:38;13.20;;;10.75;;
43835;SDS011;39345;43.964;25.340;2023-05-10T01:14:07;14.27;;;11.07;;
43835;SDS011;39345;43.964;25.340;2023-05-10T01:16:36;14.02;;;10.02;;
43835;SDS011;39345;43.964;25.340;2023-05-10T01:19:05;13.40;;;10.52;;
43835;SDS011;39345;43.964;25.340;2023-05-10T01:21:38;13.57;;;10.38;;
43835;SDS011;39345;43.964;25.340;2023-05-10T01:34:35;15.05;;;11.00;;
43835;SDS011;39345;43.964;25.340;2023-05-10T01:37:09;15.13;;;11.32;;
43835;SDS011;39345;43.964;25.340;2023-05-10T01:47:18;14.48;;;10.88;;
43835;SDS011;39345;43.964;25.340;2023-05-10T01:49:49;13.55;;;10.55;;
43835;SDS011;39345;43.964;25.340;2023-05-10T01:52:22;15.32;;;10.80;;
43835;SDS011;39345;43.964;25.340;2023-05-10T01:55:01;15.50;;;10.98;;
43835;SDS011;39345;43.964;25.340;2023-05-10T01:57:31;15.18;;;10.43;;
43835;SDS011;39345;43.964;25.340;2023-05-10T02:00:00;15.93;;;11.07;;
43835;SDS011;39345;43.964;25.340;2023-05-10T02:02:40;15.65;;;11.07;;
43835;SDS011;39345;43.964;25.340;2023-05-10T02:05:10;18.15;;;11.80;;
43835;SDS011;39345;43.964;25.340;2023-05-10T02:07:38;15.90;;;12.07;;
43835;SDS011;39345;43.964;25.340;2023-05-10T02:10:06;16.02;;;11.68;;
43835;SDS011;39345;43.964;25.340;2023-05-10T02:12:35;16.52;;;13.18;;
43835;SDS011;39345;43.964;25.340;2023-05-10T02:15:04;20.60;;;13.55;;
43835;SDS011;39345;43.964;25.340;2023-05-10T02:17:32;17.70;;;13.23;;
43835;SDS011;39345;43.964;25.340;2023-05-10T02:20:02;18.67;;;12.68;;
43835;SDS011;39345;43.964;25.340;2023-05-10T02:22:30;19.25;;;13.25;;
43835;SDS011;39345;43.964;25.340;2023-05-10T02:24:58;20.80;;;13.63;;
43835;SDS011;39345;43.964;25.340;2023-05-10T02:27:27;19.77;;;13.80;;
43835;SDS011;39345;43.964;25.340;2023-05-10T02:29:54;17.67;;;13.98;;
43835;SDS011;39345;43.964;25.340;2023-05-10T02:32:24;22.73;;;14.75;;
43835;SDS011;39345;43.964;25.340;2023-05-10T02:34:53;21.10;;;14.25;;
43835;SDS011;39345;43.964;25.340;2023-05-10T02:37:21;19.45;;;14.70;;
43835;SDS011;39345;43.964;25.340;2023-05-10T02:39:49;21.63;;;15.07;;
43835;SDS011;39345;43.964;25.340;2023-05-10T02:42:19;21.33;;;15.07;;
43835;SDS011;39345;43.964;25.340;2023-05-10T02:44:47;20.38;;;14.25;;
43835;SDS011;39345;43.964;25.340;2023-05-10T02:47:15;24.77;;;15.18;;
43835;SDS011;39345;43.964;25.340;2023-05-10T02:49:43;20.83;;;14.38;;
43835;SDS011;39345;43.964;25.340;2023-05-10T02:52:10;26.77;;;15.05;;
43835;SDS011;39345;43.964;25.340;2023-05-10T02:54:47;27.42;;;15.70;;
43835;SDS011;39345;43.964;25.340;2023-05-10T02:57:17;21.40;;;13.60;;
43835;SDS011;39345;43.964;25.340;2023-05-10T02:59:45;20.77;;;13.90;;
43835;SDS011;39345;43.964;25.340;2023-05-10T03:02:13;21.10;;;14.38;;
43835;SDS011;39345;43.964;25.340;2023-05-10T03:04:41;22.25;;;14.98;;
43835;SDS011;39345;43.964;25.340;2023-05-10T03:07:08;19.80;;;14.20;;
43835;SDS011;39345;43.964;25.340;2023-05-10T03:09:36;19.55;;;12.65;;
43835;SDS011;39345;43.964;25.340;2023-05-10T03:12:05;18.27;;;13.90;;
43835;SDS011;39345;43.964;25.340;2023-05-10T03:14:49;18.95;;;12.80;;
43835;SDS011;39345;43.964;25.340;2023-05-10T03:17:31;20.00;;;13.43;;
43835;SDS011;39345;43.964;25.340;2023-05-10T03:20:04;20.63;;;12.70;;
43835;SDS011;39345;43.964;25.340;2023-05-10T03:22:40;17.17;;;12.30;;
43835;SDS011;39345;43.964;25.340;2023-05-10T03:25:11;20.45;;;13.40;;
43835;SDS011;39345;43.964;25.340;2023-05-10T03:27:40;17.85;;;12.25;;
43835;SDS011;39345;43.964;25.340;2023-05-10T03:30:10;18.27;;;13.05;;
43835;SDS011;39345;43.964;25.340;2023-05-10T03:32:39;17.90;;;12.40;;
43835;SDS011;39345;43.964;25.340;2023-05-10T03:35:07;17.77;;;12.00;;
43835;SDS011;39345;43.964;25.340;2023-05-10T03:37:36;21.23;;;13.25;;
43835;SDS011;39345;43.964;25.340;2023-05-10T03:40:04;18.15;;;13.00;;
43835;SDS011;39345;43.964;25.340;2023-05-10T03:42:34;19.15;;;13.07;;
43835;SDS011;39345;43.964;25.340;2023-05-10T03:45:02;17.63;;;12.88;;
43835;SDS011;39345;43.964;25.340;2023-05-10T03:47:29;15.77;;;11.95;;
43835;SDS011;39345;43.964;25.340;2023-05-10T03:49:58;16.65;;;12.52;;
43835;SDS011;39345;43.964;25.340;2023-05-10T03:52:26;20.60;;;12.63;;
43835;SDS011;39345;43.964;25.340;2023-05-10T03:54:54;17.38;;;11.30;;
43835;SDS011;39345;43.964;25.340;2023-05-10T03:57:22;18.25;;;12.25;;
43835;SDS011;39345;43.964;25.340;2023-05-10T03:59:50;18.92;;;12.52;;
43835;SDS011;39345;43.964;25.340;2023-05-10T04:02:17;17.98;;;12.10;;
43835;SDS011;39345;43.964;25.340;2023-05-10T04:04:45;17.55;;;12.27;;
43835;SDS011;39345;43.964;25.340;2023-05-10T04:07:12;16.58;;;11.60;;
43835;SDS011;39345;43.964;25.340;2023-05-10T04:09:40;16.27;;;11.35;;
43835;SDS011;39345;43.964;25.340;2023-05-10T04:12:07;17.05;;;11.52;;
43835;SDS011;39345;43.964;25.340;2023-05-10T04:14:36;16.98;;;11.57;;
43835;SDS011;39345;43.964;25.340;2023-05-10T04:17:03;19.52;;;11.32;;
43835;SDS011;39345;43.964;25.340;2023-05-10T04:19:32;16.70;;;11.48;;
43835;SDS011;39345;43.964;25.340;2023-05-10T04:21:59;16.08;;;11.57;;
43835;SDS011;39345;43.964;25.340;2023-05-10T04:24:26;22.10;;;12.63;;
43835;SDS011;39345;43.964;25.340;2023-05-10T04:26:54;21.77;;;12.25;;
43835;SDS011;39345;43.964;25.340;2023-05-10T04:29:23;19.67;;;13.45;;
43835;SDS011;39345;43.964;25.340;2023-05-10T04:31:50;22.77;;;13.00;;
43835;SDS011;39345;43.964;25.340;2023-05-10T04:34:19;21.00;;;14.13;;
43835;SDS011;39345;43.964;25.340;2023-05-10T04:36:47;21.42;;;14.60;;
43835;SDS011;39345;43.964;25.340;2023-05-10T04:39:14;23.55;;;15.75;;
43835;SDS011;39345;43.964;25.340;2023-05-10T04:41:42;23.08;;;15.60;;
43835;SDS011;39345;43.964;25.340;2023-05-10T04:44:09;27.23;;;17.30;;
43835;SDS011;39345;43.964;25.340;2023-05-10T04:46:37;23.00;;;15.88;;
43835;SDS011;39345;43.964;25.340;2023-05-10T04:49:04;26.45;;;18.20;;
43835;SDS011;39345;43.964;25.340;2023-05-10T04:51:32;21.20;;;16.58;;
43835;SDS011;39345;43.964;25.340;2023-05-10T04:53:59;19.95;;;15.35;;
43835;SDS011;39345;43.964;25.340;2023-05-10T04:56:32;22.83;;;15.50;;
43835;SDS011;39345;43.964;25.340;2023-05-10T04:59:00;20.40;;;14.93;;
43835;SDS011;39345;43.964;25.340;2023-05-10T05:01:28;19.65;;;14.57;;
43835;SDS011;39345;43.964;25.340;2023-05-10T05:03:56;20.38;;;14.98;;
43835;SDS011;39345;43.964;25.340;2023-05-10T05:06:24;20.42;;;15.15;;
43835;SDS011;39345;43.964;25.340;2023-05-10T05:08:53;20.23;;;15.07;;
43835;SDS011;39345;43.964;25.340;2023-05-10T05:11:21;24.45;;;15.88;;
43835;SDS011;39345;43.964;25.340;2023-05-10T05:13:48;18.20;;;13.85;;
43835;SDS011;39345;43.964;25.340;2023-05-10T05:16:16;18.63;;;14.27;;
43835;SDS011;39345;43.964;25.340;2023-05-10T05:18:43;18.70;;;13.98;;
43835;SDS011;39345;43.964;25.340;2023-05-10T05:21:14;20.33;;;15.43;;
43835;SDS011;39345;43.964;25.340;2023-05-10T05:23:42;20.85;;;14.57;;
43835;SDS011;39345;43.964;25.340;2023-05-10T05:26:10;21.15;;;14.80;;
43835;SDS011;39345;43.964;25.340;2023-05-10T05:28:38;20.08;;;15.30;;
43835;SDS011;39345;43.964;25.340;2023-05-10T05:31:05;21.15;;;13.70;;
43835;SDS011;39345;43.964;25.340;2023-05-10T05:33:34;18.67;;;13.63;;
43835;SDS011;39345;43.964;25.340;2023-05-10T05:36:04;22.35;;;14.15;;
43835;SDS011;39345;43.964;25.340;2023-05-10T05:38:32;21.67;;;14.52;;
43835;SDS011;39345;43.964;25.340;2023-05-10T05:41:00;20.05;;;15.68;;
43835;SDS011;39345;43.964;25.340;2023-05-10T05:43:27;24.48;;;16.60;;
43835;SDS011;39345;43.964;25.340;2023-05-10T05:45:55;25.13;;;17.20;;
43835;SDS011;39345;43.964;25.340;2023-05-10T05:48:24;21.08;;;16.42;;
43835;SDS011;39345;43.964;25.340;2023-05-10T05:50:55;26.55;;;16.08;;
43835;SDS011;39345;43.964;25.340;2023-05-10T05:53:25;21.42;;;14.82;;
43835;SDS011;39345;43.964;25.340;2023-05-10T05:55:56;20.30;;;15.07;;
43835;SDS011;39345;43.964;25.340;2023-05-10T05:58:25;15.45;;;11.55;;
43835;SDS011;39345;43.964;25.340;2023-05-10T06:00:53;12.80;;;10.90;;
43835;SDS011;39345;43.964;25.340;2023-05-10T06:03:20;15.60;;;12.10;;
43835;SDS011;39345;43.964;25.340;2023-05-10T06:05:48;13.60;;;11.38;;
43835;SDS011;39345;43.964;25.340;2023-05-10T06:08:16;15.70;;;11.68;;
43835;SDS011;39345;43.964;25.340;2023-05-10T06:10:43;17.45;;;11.00;;
43835;SDS011;39345;43.964;25.340;2023-05-10T06:13:11;15.13;;;10.93;;
43835;SDS011;39345;43.964;25.340;2023-05-10T06:15:39;13.75;;;12.05;;
43835;SDS011;39345;43.964;25.340;2023-05-10T06:18:07;16.02;;;12.38;;
43835;SDS011;39345;43.964;25.340;2023-05-10T06:20:34;16.00;;;11.30;;
43835;SDS011;39345;43.964;25.340;2023-05-10T06:23:02;15.75;;;11.43;;
43835;SDS011;39345;43.964;25.340;2023-05-10T06:25:29;15.73;;;11.65;;
43835;SDS011;39345;43.964;25.340;2023-05-10T06:27:56;13.20;;;10.75;;
43835;SDS011;39345;43.964;25.340;2023-05-10T06:30:24;14.05;;;11.07;;
43835;SDS011;39345;43.964;25.340;2023-05-10T06:32:55;13.75;;;11.00;;
43835;SDS011;39345;43.964;25.340;2023-05-10T06:35:23;12.68;;;10.23;;
43835;SDS011;39345;43.964;25.340;2023-05-10T06:37:51;13.90;;;10.57;;
43835;SDS011;39345;43.964;25.340;2023-05-10T06:40:18;12.88;;;10.23;;
43835;SDS011;39345;43.964;25.340;2023-05-10T06:42:46;13.85;;;11.13;;
43835;SDS011;39345;43.964;25.340;2023-05-10T06:45:14;14.23;;;10.65;;
43835;SDS011;39345;43.964;25.340;2023-05-10T06:47:42;11.52;;;10.32;;
43835;SDS011;39345;43.964;25.340;2023-05-10T06:50:10;12.88;;;9.73;;
43835;SDS011;39345;43.964;25.340;2023-05-10T06:52:38;8.93;;;8.02;;
43835;SDS011;39345;43.964;25.340;2023-05-10T06:55:05;10.82;;;8.35;;
43835;SDS011;39345;43.964;25.340;2023-05-10T06:57:33;11.48;;;8.50;;
43835;SDS011;39345;43.964;25.340;2023-05-10T07:00:01;9.93;;;8.32;;
43835;SDS011;39345;43.964;25.340;2023-05-10T07:02:30;9.40;;;7.85;;
43835;SDS011;39345;43.964;25.340;2023-05-10T07:04:58;10.48;;;8.43;;
43835;SDS011;39345;43.964;25.340;2023-05-10T07:07:28;8.50;;;7.63;;
43835;SDS011;39345;43.964;25.340;2023-05-10T07:09:56;9.43;;;7.60;;
43835;SDS011;39345;43.964;25.340;2023-05-10T07:12:24;8.07;;;7.28;;
43835;SDS011;39345;43.964;25.340;2023-05-10T07:14:52;10.27;;;6.97;;
43835;SDS011;39345;43.964;25.340;2023-05-10T07:17:19;9.50;;;6.68;;
43835;SDS011;39345;43.964;25.340;2023-05-10T07:19:47;10.07;;;7.22;;
43835;SDS011;39345;43.964;25.340;2023-05-10T07:22:15;11.10;;;7.35;;
43835;SDS011;39345;43.964;25.340;2023-05-10T07:24:44;8.02;;;7.03;;
43835;SDS011;39345;43.964;25.340;2023-05-10T07:27:11;6.93;;;5.90;;
43835;SDS011;39345;43.964;25.340;2023-05-10T07:29:39;7.22;;;6.38;;
43835;SDS011;39345;43.964;25.340;2023-05-10T07:32:06;9.15;;;6.60;;
43835;SDS011;39345;43.964;25.340;2023-05-10T07:34:34;7.75;;;5.57;;
43835;SDS011;39345;43.964;25.340;2023-05-10T07:37:02;6.80;;;6.07;;
43835;SDS011;39345;43.964;25.340;2023-05-10T07:39:29;6.40;;;5.75;;
43835;SDS011;39345;43.964;25.340;2023-05-10T07:41:57;7.07;;;6.10;;
43835;SDS011;39345;43.964;25.340;2023-05-10T07:44:24;8.35;;;6.25;;
43835;SDS011;39345;43.964;25.340;2023-05-10T07:46:51;7.70;;;5.70;;
43835;SDS011;39345;43.964;25.340;2023-05-10T07:49:19;10.40;;;5.90;;
43835;SDS011;39345;43.964;25.340;2023-05-10T07:51:46;8.15;;;5.50;;
43835;SDS011;39345;43.964;25.340;2023-05-10T07:54:14;6.25;;;5.55;;
43835;SDS011;39345;43.964;25.340;2023-05-10T07:56:41;7.45;;;5.55;;
43835;SDS011;39345;43.964;25.340;2023-05-10T07:59:17;8.73;;;6.10;;
43835;SDS011;39345;43.964;25.340;2023-05-10T08:01:44;12.35;;;5.72;;
43835;SDS011;39345;43.964;25.340;2023-05-10T08:04:12;5.80;;;3.92;;
43835;SDS011;39345;43.964;25.340;2023-05-10T08:06:39;8.05;;;4.32;;
43835;SDS011;39345;43.964;25.340;2023-05-10T08:09:07;8.07;;;4.40;;
43835;SDS011;39345;43.964;25.340;2023-05-10T08:11:35;7.25;;;4.50;;
43835;SDS011;39345;43.964;25.340;2023-05-10T08:14:02;6.75;;;4.22;;
43835;SDS011;39345;43.964;25.340;2023-05-10T08:16:30;8.15;;;4.07;;
43835;SDS011;39345;43.964;25.340;2023-05-10T08:18:58;5.80;;;4.35;;
43835;SDS011;39345;43.964;25.340;2023-05-10T08:21:26;5.50;;;3.72;;
43835;SDS011;39345;43.964;25.340;2023-05-10T08:23:53;4.85;;;3.30;;
43835;SDS011;39345;43.964;25.340;2023-05-10T08:26:21;5.88;;;3.17;;
43835;SDS011;39345;43.964;25.340;2023-05-10T08:28:48;6.65;;;3.72;;
43835;SDS011;39345;43.964;25.340;2023-05-10T08:31:16;6.18;;;3.17;;
43835;SDS011;39345;43.964;25.340;2023-05-10T08:33:44;5.72;;;3.45;;
43835;SDS011;39345;43.964;25.340;2023-05-10T08:36:12;5.82;;;3.05;;
43835;SDS011;39345;43.964;25.340;2023-05-10T08:38:45;7.20;;;3.33;;
43835;SDS011;39345;43.964;25.340;2023-05-10T08:41:14;3.17;;;2.40;;
43835;SDS011;39345;43.964;25.340;2023-05-10T08:43:42;7.30;;;3.63;;
43835;SDS011;39345;43.964;25.340;2023-05-10T08:46:15;6.22;;;4.20;;
43835;SDS011;39345;43.964;25.340;2023-05-10T08:48:47;4.65;;;2.58;;
43835;SDS011;39345;43.964;25.340;2023-05-10T08:51:16;4.80;;;3.15;;
43835;SDS011;39345;43.964;25.340;2023-05-10T08:53:44;7.82;;;3.47;;
43835;SDS011;39345;43.964;25.340;2023-05-10T08:56:12;6.75;;;2.72;;
43835;SDS011;39345;43.964;25.340;2023-05-10T08:58:39;5.18;;;2.83;;
43835;SDS011;39345;43.964;25.340;2023-05-10T09:01:07;7.82;;;3.28;;
43835;SDS011;39345;43.964;25.340;2023-05-10T09:03:34;4.32;;;3.20;;
43835;SDS011;39345;43.964;25.340;2023-05-10T09:06:02;4.85;;;2.72;;
43835;SDS011;39345;43.964;25.340;2023-05-10T09:08:30;5.10;;;2.70;;
43835;SDS011;39345;43.964;25.340;2023-05-10T09:10:58;5.15;;;3.15;;
43835;SDS011;39345;43.964;25.340;2023-05-10T09:13:27;5.47;;;3.25;;
43835;SDS011;39345;43.964;25.340;2023-05-10T09:15:55;4.25;;;2.75;;
43835;SDS011;39345;43.964;25.340;2023-05-10T09:18:29;3.67;;;3.13;;
43835;SDS011;39345;43.964;25.340;2023-05-10T09:20:57;5.30;;;3.33;;
43835;SDS011;39345;43.964;25.340;2023-05-10T09:23:24;6.28;;;3.20;;
43835;SDS011;39345;43.964;25.340;2023-05-10T09:26:02;4.60;;;3.15;;
43835;SDS011;39345;43.964;25.340;2023-05-10T09:28:31;4.53;;;3.00;;
43835;SDS011;39345;43.964;25.340;2023-05-10T09:30:58;4.00;;;3.03;;
43835;SDS011;39345;43.964;25.340;2023-05-10T09:33:26;8.02;;;3.53;;
43835;SDS011;39345;43.964;25.340;2023-05-10T09:35:53;4.43;;;2.92;;
43835;SDS011;39345;43.964;25.340;2023-05-10T09:38:21;5.13;;;3.25;;
43835;SDS011;39345;43.964;25.340;2023-05-10T09:40:52;5.13;;;3.60;;
43835;SDS011;39345;43.964;25.340;2023-05-10T09:43:20;5.85;;;3.85;;
43835;SDS011;39345;43.964;25.340;2023-05-10T09:45:48;6.57;;;3.80;;
43835;SDS011;39345;43.964;25.340;2023-05-10T09:48:16;4.90;;;3.60;;
43835;SDS011;39345;43.964;25.340;2023-05-10T09:50:44;6.20;;;3.47;;
43835;SDS011;39345;43.964;25.340;2023-05-10T09:53:12;5.50;;;3.50;;
43835;SDS011;39345;43.964;25.340;2023-05-10T09:55:43;6.63;;;3.50;;
43835;SDS011;39345;43.964;25.340;2023-05-10T09:58:12;5.80;;;3.85;;
43835;SDS011;39345;43.964;25.340;2023-05-10T10:00:44;6.97;;;4.15;;
43835;SDS011;39345;43.964;25.340;2023-05-10T10:03:15;5.10;;;4.00;;
43835;SDS011;39345;43.964;25.340;2023-05-10T10:05:43;4.00;;;3.42;;
43835;SDS011;39345;43.964;25.340;2023-05-10T10:08:11;4.97;;;3.45;;
43835;SDS011;39345;43.964;25.340;2023-05-10T10:10:39;6.28;;;3.50;;
43835;SDS011;39345;43.964;25.340;2023-05-10T10:13:08;4.85;;;3.20;;
43835;SDS011;39345;43.964;25.340;2023-05-10T10:15:35;4.68;;;2.80;;
43835;SDS011;39345;43.964;25.340;2023-05-10T10:18:03;4.20;;;3.05;;
43835;SDS011;39345;43.964;25.340;2023-05-10T10:20:33;4.22;;;3.78;;
43835;SDS011;39345;43.964;25.340;2023-05-10T10:23:00;6.40;;;4.30;;
43835;SDS011;39345;43.964;25.340;2023-05-10T10:25:28;7.32;;;5.07;;
43835;SDS011;39345;43.964;25.340;2023-05-10T10:27:59;10.38;;;7.40;;
43835;SDS011;39345;43.964;25.340;2023-05-10T10:33:10;4.90;;;2.90;;
43835;SDS011;39345;43.964;25.340;2023-05-10T10:35:53;3.47;;;3.00;;
43835;SDS011;39345;43.964;25.340;2023-05-10T10:38:21;6.80;;;3.28;;
43835;SDS011;39345;43.964;25.340;2023-05-10T10:40:49;7.07;;;3.58;;
43835;SDS011;39345;43.964;25.340;2023-05-10T10:43:28;5.18;;;2.97;;
43835;SDS011;39345;43.964;25.340;2023-05-10T10:46:15;5.45;;;2.90;;
43835;SDS011;39345;43.964;25.340;2023-05-10T10:48:47;4.45;;;2.70;;
43835;SDS011;39345;43.964;25.340;2023-05-10T10:51:15;4.60;;;2.90;;
43835;SDS011;39345;43.964;25.340;2023-05-10T10:53:43;4.90;;;3.10;;
43835;SDS011;39345;43.964;25.340;2023-05-10T10:56:14;5.80;;;2.90;;
43835;SDS011;39345;43.964;25.340;2023-05-10T10:58:48;6.40;;;2.97;;
43835;SDS011;39345;43.964;25.340;2023-05-10T11:01:20;2.75;;;2.42;;
43835;SDS011;39345;43.964;25.340;2023-05-10T11:03:56;4.95;;;2.60;;
43835;SDS011;39345;43.964;25.340;2023-05-10T11:06:41;3.40;;;2.40;;
43835;SDS011;39345;43.964;25.340;2023-05-10T11:09:12;3.47;;;2.30;;
43835;SDS011;39345;43.964;25.340;2023-05-10T11:11:50;3.70;;;2.38;;
43835;SDS011;39345;43.964;25.340;2023-05-10T11:14:21;4.00;;;2.70;;
43835;SDS011;39345;43.964;25.340;2023-05-10T11:16:49;5.38;;;2.50;;
43835;SDS011;39345;43.964;25.340;2023-05-10T11:19:16;5.15;;;2.33;;
43835;SDS011;39345;43.964;25.340;2023-05-10T11:21:48;3.17;;;2.15;;
43835;SDS011;39345;43.964;25.340;2023-05-10T11:24:20;4.28;;;2.28;;
43835;SDS011;39345;43.964;25.340;2023-05-10T11:26:51;3.15;;;2.15;;
43835;SDS011;39345;43.964;25.340;2023-05-10T11:29:19;3.35;;;2.30;;
43835;SDS011;39345;43.964;25.340;2023-05-10T11:31:47;5.35;;;2.78;;
43835;SDS011;39345;43.964;25.340;2023-05-10T11:36:52;2.65;;;2.33;;
43835;SDS011;39345;43.964;25.340;2023-05-10T11:39:20;4.38;;;2.33;;
43835;SDS011;39345;43.964;25.340;2023-05-10T11:41:48;3.60;;;2.50;;
43835;SDS011;39345;43.964;25.340;2023-05-10T11:44:16;4.00;;;2.30;;
43835;SDS011;39345;43.964;25.340;2023-05-10T11:46:43;5.32;;;2.67;;
43835;SDS011;39345;43.964;25.340;2023-05-10T11:49:11;4.07;;;2.45;;
43835;SDS011;39345;43.964;25.340;2023-05-10T11:51:39;4.30;;;2.35;;
43835;SDS011;39345;43.964;25.340;2023-05-10T11:54:10;4.10;;;2.10;;
43835;SDS011;39345;43.964;25.340;2023-05-10T11:56:38;4.88;;;2.30;;
43835;SDS011;39345;43.964;25.340;2023-05-10T11:59:06;2.60;;;2.05;;
43835;SDS011;39345;43.964;25.340;2023-05-10T12:01:34;4.05;;;2.50;;
43835;SDS011;39345;43.964;25.340;2023-05-10T12:04:02;3.10;;;2.30;;
43835;SDS011;39345;43.964;25.340;2023-05-10T12:06:31;3.13;;;2.38;;
43835;SDS011;39345;43.964;25.340;2023-05-10T12:08:58;4.70;;;3.70;;
43835;SDS011;39345;43.964;25.340;2023-05-10T12:11:27;4.05;;;2.70;;
43835;SDS011;39345;43.964;25.340;2023-05-10T12:13:55;3.33;;;2.13;;
43835;SDS011;39345;43.964;25.340;2023-05-10T12:16:24;8.00;;;3.10;;
43835;SDS011;39345;43.964;25.340;2023-05-10T12:18:53;4.53;;;2.45;;
43835;SDS011;39345;43.964;25.340;2023-05-10T12:21:21;3.58;;;2.08;;
43835;SDS011;39345;43.964;25.340;2023-05-10T12:23:50;4.57;;;3.10;;
43835;SDS011;39345;43.964;25.340;2023-05-10T12:26:18;6.35;;;2.67;;
43835;SDS011;39345;43.964;25.340;2023-05-10T12:28:46;3.20;;;2.10;;
43835;SDS011;39345;43.964;25.340;2023-05-10T12:31:13;3.45;;;2.25;;
43835;SDS011;39345;43.964;25.340;2023-05-10T12:33:42;3.17;;;2.33;;
43835;SDS011;39345;43.964;25.340;2023-05-10T12:36:10;4.63;;;2.13;;
43835;SDS011;39345;43.964;25.340;2023-05-10T12:38:40;4.20;;;2.10;;
43835;SDS011;39345;43.964;25.340;2023-05-10T12:41:10;3.65;;;1.90;;
43835;SDS011;39345;43.964;25.340;2023-05-10T12:43:39;2.03;;;1.70;;
43835;SDS011;39345;43.964;25.340;2023-05-10T12:46:10;2.10;;;1.90;;
43835;SDS011;39345;43.964;25.340;2023-05-10T12:48:38;2.92;;;2.17;;
43835;SDS011;39345;43.964;25.340;2023-05-10T12:51:07;2.28;;;1.90;;
43835;SDS011;39345;43.964;25.340;2023-05-10T12:53:35;2.30;;;2.03;;
43835;SDS011;39345;43.964;25.340;2023-05-10T12:56:03;4.15;;;2.08;;
43835;SDS011;39345;43.964;25.340;2023-05-10T12:58:31;4.70;;;2.03;;
43835;SDS011;39345;43.964;25.340;2023-05-10T13:01:01;2.72;;;1.80;;
43835;SDS011;39345;43.964;25.340;2023-05-10T13:03:30;3.55;;;2.13;;
43835;SDS011;39345;43.964;25.340;2023-05-10T13:05:58;3.22;;;1.92;;
43835;SDS011;39345;43.964;25.340;2023-05-10T13:08:25;3.60;;;2.50;;
43835;SDS011;39345;43.964;25.340;2023-05-10T13:10:53;3.42;;;2.30;;
43835;SDS011;39345;43.964;25.340;2023-05-10T13:13:20;5.20;;;2.10;;
43835;SDS011;39345;43.964;25.340;2023-05-10T13:15:48;2.88;;;2.10;;
43835;SDS011;39345;43.964;25.340;2023-05-10T13:18:15;2.78;;;1.92;;
43835;SDS011;39345;43.964;25.340;2023-05-10T13:20:43;4.38;;;1.83;;
43835;SDS011;39345;43.964;25.340;2023-05-10T13:23:10;2.20;;;2.00;;
43835;SDS011;39345;43.964;25.340;2023-05-10T13:25:38;4.75;;;2.13;;
43835;SDS011;39345;43.964;25.340;2023-05-10T13:28:05;3.80;;;2.10;;
43835;SDS011;39345;43.964;25.340;2023-05-10T13:30:33;5.18;;;2.30;;
43835;SDS011;39345;43.964;25.340;2023-05-10T13:33:00;4.55;;;2.45;;
43835;SDS011;39345;43.964;25.340;2023-05-10T13:35:28;5.32;;;2.17;;
43835;SDS011;39345;43.964;25.340;2023-05-10T13:37:55;5.35;;;2.00;;
43835;SDS011;39345;43.964;25.340;2023-05-10T13:40:24;3.65;;;2.20;;
43835;SDS011;39345;43.964;25.340;2023-05-10T13:42:51;3.78;;;2.00;;
43835;SDS011;39345;43.964;25.340;2023-05-10T13:45:19;4.72;;;2.38;;
43835;SDS011;39345;43.964;25.340;2023-05-10T13:47:47;4.25;;;2.40;;
43835;SDS011;39345;43.964;25.340;2023-05-10T13:50:15;2.78;;;1.95;;
43835;SDS011;39345;43.964;25.340;2023-05-10T13:52:42;4.28;;;2.25;;
43835;SDS011;39345;43.964;25.340;2023-05-10T13:55:10;3.53;;;2.15;;
43835;SDS011;39345;43.964;25.340;2023-05-10T13:57:39;5.53;;;1.80;;
43835;SDS011;39345;43.964;25.340;2023-05-10T14:00:07;2.92;;;1.80;;
43835;SDS011;39345;43.964;25.340;2023-05-10T14:02:34;5.40;;;1.80;;
43835;SDS011;39345;43.964;25.340;2023-05-10T14:05:02;2.22;;;1.85;;
43835;SDS011;39345;43.964;25.340;2023-05-10T14:07:30;3.42;;;2.00;;
43835;SDS011;39345;43.964;25.340;2023-05-10T14:09:57;3.17;;;1.80;;
43835;SDS011;39345;43.964;25.340;2023-05-10T14:12:25;4.10;;;2.10;;
43835;SDS011;39345;43.964;25.340;2023-05-10T14:14:52;2.20;;;2.00;;
43835;SDS011;39345;43.964;25.340;2023-05-10T14:17:20;3.92;;;2.20;;
43835;SDS011;39345;43.964;25.340;2023-05-10T14:19:48;2.25;;;1.90;;
43835;SDS011;39345;43.964;25.340;2023-05-10T14:22:15;3.08;;;1.80;;
43835;SDS011;39345;43.964;25.340;2023-05-10T14:24:43;2.60;;;1.70;;
43835;SDS011;39345;43.964;25.340;2023-05-10T14:27:13;2.42;;;1.92;;
43835;SDS011;39345;43.964;25.340;2023-05-10T14:29:41;4.90;;;2.00;;
43835;SDS011;39345;43.964;25.340;2023-05-10T14:32:08;4.63;;;2.00;;
43835;SDS011;39345;43.964;25.340;2023-05-10T14:34:36;4.20;;;1.98;;
43835;SDS011;39345;43.964;25.340;2023-05-10T14:37:04;2.03;;;1.83;;
43835;SDS011;39345;43.964;25.340;2023-05-10T14:39:32;4.35;;;2.20;;
43835;SDS011;39345;43.964;25.340;2023-05-10T14:41:59;3.00;;;2.08;;
43835;SDS011;39345;43.964;25.340;2023-05-10T14:44:29;3.03;;;2.10;;
43835;SDS011;39345;43.964;25.340;2023-05-10T14:46:56;3.42;;;2.60;;
43835;SDS011;39345;43.964;25.340;2023-05-10T14:49:24;3.72;;;2.10;;
43835;SDS011;39345;43.964;25.340;2023-05-10T14:51:52;2.53;;;1.83;;
43835;SDS011;39345;43.964;25.340;2023-05-10T14:54:20;2.08;;;1.88;;